This is the latest recevied weather packets stored in our database for station/object SP2CDN-10. If no packets are shown the sender has not sent any weather packets the latest 10 day(s).
| Time | Temp. | Humidity | Pressure | Rain* | Wind** | Luminosity | Snow |
|---|---|---|---|---|---|---|---|
| 1777849266 | 17.22° C | 36% | 1009.7 hPa | - | - | - | - |
| 1777846984 | 16.67° C | 36% | 1009.8 hPa | - | - | - | - |
| 1777844703 | 17.22° C | 34% | 1010 hPa | - | - | - | - |
| 1777842420 | 18.33° C | 31% | 1010 hPa | - | - | - | - |
| 1777840139 | 19.44° C | 29% | 1010.1 hPa | - | - | - | - |
| 1777837858 | 20.56° C | 26% | 1010.1 hPa | - | - | - | - |
| 1777835576 | 21.67° C | 24% | 1010.2 hPa | - | - | - | - |
| 1777833295 | 22.78° C | 21% | 1009.9 hPa | - | - | - | - |
| 1777831013 | 25° C | 18% | 1009.8 hPa | - | - | - | - |
| 1777828731 | 27.22° C | 15% | 1009.8 hPa | - | - | - | - |
| 1777826449 | 30° C | 14% | 1009.8 hPa | - | - | - | - |
| 1777824168 | 31.67° C | 13% | 1009.9 hPa | - | - | - | - |
| 1777821886 | 32.22° C | 13% | 1010.1 hPa | - | - | - | - |
| 1777819605 | 34.44° C | 12% | 1010.4 hPa | - | - | - | - |
| 1777818232 | 32.22° C | 13% | 1010.7 hPa | - | - | - | - |
| 1777815950 | 33.33° C | 12% | 1011.1 hPa | - | - | - | - |
| 1777813668 | 31.67° C | 13% | 1011.7 hPa | - | - | - | - |
| 1777811387 | 29.44° C | 12% | 1011.7 hPa | - | - | - | - |
| 1777809105 | 28.89° C | 15% | 1012.2 hPa | - | - | - | - |
| 1777806824 | 28.33° C | 18% | 1012.5 hPa | - | - | - | - |
| 1777804542 | 27.22° C | 19% | 1013 hPa | - | - | - | - |
| 1777802261 | 26.11° C | 19% | 1013.3 hPa | - | - | - | - |
| 1777799979 | 25.56° C | 20% | 1013.8 hPa | - | - | - | - |
| 1777797698 | 24.44° C | 25% | 1014.2 hPa | - | - | - | - |
| 1777795416 | 23.33° C | 27% | 1014.4 hPa | - | - | - | - |
* Rain since midnight (hover to see other rain measurements)
** Current wind speed in m/s (hover to see current wind gust speed)